Time;durP1;ratioP1;P1;durP2;ratioP2;P2;SDS_P1;SDS_P2;PMS_P1;PMS_P2;Temp;Humidity;BMP_temperature;BMP_pressure;BME280_temperature;BME280_humidity;BME280_pressure;Samples;Min_cycle;Max_cycle;Signal;HPM_P1;HPM_P2
2022/06/17 00:00:13;;;;;;;0.32;0.32;;;15.20;99.90;;;;;;5023785;28;20036;-76
2022/06/17 00:02:38;;;;;;;0.65;0.40;;;15.20;99.90;;;;;;5012383;28;20080;-76
2022/06/17 00:05:05;;;;;;;0.75;0.40;;;15.20;99.90;;;;;;5024575;28;20053;-76
2022/06/17 00:07:30;;;;;;;0.30;0.30;;;15.10;99.90;;;;;;5025119;28;20117;-76
2022/06/17 00:09:55;;;;;;;1.77;0.55;;;15.10;99.30;;;;;;5031439;28;20480;-76
2022/06/17 00:12:21;;;;;;;0.47;0.47;;;15.10;99.90;;;;;;5032170;28;20072;-76
2022/06/17 00:17:31;;;;;;;0.70;0.57;;;15.00;99.90;;;;;;5030601;28;20040;-76
2022/06/17 00:19:56;;;;;;;0.35;0.32;;;15.00;99.90;;;;;;5031986;28;20033;-76
2022/06/17 00:22:22;;;;;;;1.63;1.08;;;14.90;99.90;;;;;;5012099;28;20033;-76
2022/06/17 00:24:50;;;;;;;0.30;0.30;;;14.90;99.90;;;;;;5030634;28;20040;-76
2022/06/17 00:27:16;;;;;;;0.20;0.20;;;14.90;99.90;;;;;;5029147;28;20132;-76
2022/06/17 00:29:41;;;;;;;0.63;0.55;;;14.90;99.90;;;;;;5030024;28;20132;-76
2022/06/17 00:32:07;;;;;;;0.35;0.28;;;14.80;99.90;;;;;;5033340;28;20083;-76
2022/06/17 00:34:33;;;;;;;1.20;0.35;;;14.80;99.90;;;;;;5029697;28;20100;-76
2022/06/17 00:37:01;;;;;;;0.40;0.40;;;14.70;99.90;;;;;;5024137;28;20116;-76
2022/06/17 00:39:30;;;;;;;0.60;0.38;;;14.70;99.90;;;;;;5028771;28;20029;-76
2022/06/17 00:42:05;;;;;;;0.30;0.30;;;14.60;99.90;;;;;;5029947;28;20033;-76
2022/06/17 00:45:01;;;;;;;0.65;0.40;;;14.60;99.90;;;;;;5028439;28;20060;-77
2022/06/17 00:47:42;;;;;;;0.63;0.40;;;14.60;99.90;;;;;;5025147;28;20029;-76
2022/06/17 00:50:19;;;;;;;4.43;0.70;;;14.50;99.90;;;;;;5025517;28;20024;-76
2022/06/17 00:53:19;;;;;;;1.95;0.82;;;14.50;99.90;;;;;;5031331;28;20040;-76
2022/06/17 00:55:53;;;;;;;0.60;0.60;;;14.50;99.90;;;;;;5030251;28;20037;-76
2022/06/17 00:58:30;;;;;;;0.70;0.50;;;14.60;99.90;;;;;;5026821;28;20249;-76
2022/06/17 01:00:58;;;;;;;0.88;0.80;;;14.60;99.90;;;;;;5028362;28;20033;-77
2022/06/17 01:03:30;;;;;;;1.05;0.50;;;14.60;99.90;;;;;;5029595;28;20125;-76
2022/06/17 01:06:11;;;;;;;0.40;0.40;;;14.70;98.70;;;;;;5028551;28;20064;-76
2022/06/17 01:11:38;;;;;;;0.70;0.60;;;14.90;99.90;;;;;;5026808;28;20287;-76
2022/06/17 01:14:05;;;;;;;0.35;0.35;;;14.90;99.90;;;;;;5029951;28;20057;-76
2022/06/17 01:16:34;;;;;;;0.95;0.70;;;14.90;99.10;;;;;;5027536;28;20037;-76
2022/06/17 01:19:16;;;;;;;3.15;0.90;;;14.80;99.70;;;;;;5027155;28;20040;-76
2022/06/17 01:21:53;;;;;;;0.63;0.63;;;14.80;99.50;;;;;;5024813;28;20030;-76
2022/06/17 01:24:19;;;;;;;0.63;0.47;;;14.80;98.00;;;;;;5022610;28;20033;-76
2022/06/17 01:26:46;;;;;;;0.65;0.57;;;14.80;99.10;;;;;;5028292;28;20108;-76
2022/06/17 01:29:15;;;;;;;1.58;0.65;;;14.90;98.00;;;;;;5025617;28;20053;-76
2022/06/17 01:31:47;;;;;;;0.77;0.68;;;14.90;99.90;;;;;;5025375;28;20034;-76
2022/06/17 01:34:13;;;;;;;0.35;0.35;;;14.90;98.20;;;;;;5030598;28;20045;-76
2022/06/17 01:36:40;;;;;;;1.83;0.47;;;14.90;99.80;;;;;;5026428;28;20025;-76
2022/06/17 01:39:05;;;;;;;1.98;0.70;;;14.70;99.90;;;;;;5028241;28;20064;-76
2022/06/17 01:41:33;;;;;;;0.30;0.30;;;14.70;99.90;;;;;;5029119;28;20052;-76
2022/06/17 01:44:06;;;;;;;0.40;0.40;;;14.60;99.90;;;;;;5028242;28;20021;-77
2022/06/17 01:46:37;;;;;;;0.43;0.40;;;14.50;99.90;;;;;;5020932;28;20039;-76
2022/06/17 01:49:11;;;;;;;;;;;14.50;99.90;;;;;;5029711;28;20095;-76
2022/06/17 01:51:42;;;;;;;4.03;0.73;;;14.50;99.90;;;;;;5023005;28;19913;-76
2022/06/17 01:54:13;;;;;;;2.20;0.63;;;14.40;99.90;;;;;;5029291;28;20140;-76
2022/06/17 01:56:42;;;;;;;0.52;0.52;;;14.40;99.90;;;;;;5025737;28;20084;-76
2022/06/17 01:59:17;;;;;;;0.88;0.50;;;14.30;99.90;;;;;;5027859;28;20057;-77
2022/06/17 02:01:46;;;;;;;0.82;0.52;;;14.20;99.90;;;;;;5025984;28;20036;-76
2022/06/17 02:04:16;;;;;;;1.27;0.90;;;14.10;99.90;;;;;;5032661;28;20025;-76
2022/06/17 02:06:59;;;;;;;2.45;0.65;;;14.10;99.90;;;;;;5019320;28;20522;-76
2022/06/17 02:09:25;;;;;;;0.17;0.17;;;14.00;99.90;;;;;;5028375;28;20100;-76
2022/06/17 02:11:52;;;;;;;0.40;0.40;;;13.90;99.90;;;;;;5027679;28;20105;-76
2022/06/17 02:14:18;;;;;;;1.25;0.55;;;13.90;99.90;;;;;;5026440;28;20032;-77
2022/06/17 02:16:48;;;;;;;1.23;0.80;;;13.80;99.90;;;;;;5027378;28;20026;-76
2022/06/17 02:19:14;;;;;;;0.47;0.47;;;13.70;99.90;;;;;;5017590;28;20029;-76
2022/06/17 02:21:50;;;;;;;0.32;0.32;;;13.60;99.90;;;;;;5029700;28;20030;-76
2022/06/17 02:24:17;;;;;;;0.32;0.32;;;13.60;99.90;;;;;;5026488;28;20017;-76
2022/06/17 02:26:44;;;;;;;0.60;0.52;;;13.60;99.90;;;;;;5025392;28;20078;-76
2022/06/17 02:29:11;;;;;;;1.58;0.80;;;13.50;99.90;;;;;;5025739;28;20061;-77
2022/06/17 02:31:40;;;;;;;1.05;0.88;;;13.50;99.90;;;;;;5039893;28;20029;-76
2022/06/17 02:34:07;;;;;;;0.90;0.70;;;13.50;99.90;;;;;;5028591;28;20057;-76
2022/06/17 02:36:40;;;;;;;0.90;0.40;;;13.40;99.90;;;;;;5024770;28;20028;-76
2022/06/17 02:39:05;;;;;;;0.30;0.30;;;13.30;99.90;;;;;;5022333;28;20503;-76
2022/06/17 02:41:31;;;;;;;0.45;0.45;;;13.30;99.90;;;;;;5027754;28;20032;-76
2022/06/17 02:44:06;;;;;;;0.40;0.40;;;13.30;99.90;;;;;;5028906;28;20033;-76
2022/06/17 02:46:35;;;;;;;1.30;0.50;;;13.20;99.90;;;;;;5027764;28;20045;-76
2022/06/17 02:49:04;;;;;;;0.47;0.47;;;13.20;99.90;;;;;;5026161;28;20112;-76
2022/06/17 02:51:35;;;;;;;0.65;0.50;;;13.10;99.90;;;;;;5025919;28;20104;-77
2022/06/17 02:54:03;;;;;;;0.40;0.40;;;13.10;99.90;;;;;;5030975;28;20048;-76
2022/06/17 02:56:31;;;;;;;0.82;0.60;;;13.10;99.90;;;;;;5026097;28;20124;-76
2022/06/17 02:59:05;;;;;;;0.30;0.30;;;13.10;99.90;;;;;;5027737;28;20055;-76
2022/06/17 03:01:34;;;;;;;0.40;0.40;;;13.10;99.90;;;;;;5029610;28;20056;-76
2022/06/17 03:04:01;;;;;;;0.22;0.22;;;13.10;99.90;;;;;;5022123;28;20029;-77
2022/06/17 03:06:32;;;;;;;0.50;0.50;;;13.00;99.90;;;;;;5026852;28;20040;-76
2022/06/17 03:09:14;;;;;;;0.32;0.32;;;13.00;99.90;;;;;;5021329;28;20037;-76
2022/06/17 03:11:41;;;;;;;1.20;0.65;;;13.00;99.90;;;;;;5028365;28;20439;-76
2022/06/17 03:14:09;;;;;;;1.38;0.70;;;12.90;99.90;;;;;;5029829;28;20095;-76
2022/06/17 03:16:35;;;;;;;0.80;0.73;;;13.00;99.90;;;;;;5022706;28;20048;-76
2022/06/17 03:19:02;;;;;;;3.13;0.55;;;13.20;99.90;;;;;;5028195;28;20492;-76
2022/06/17 03:21:27;;;;;;;0.38;0.38;;;13.10;99.90;;;;;;5029001;28;20492;-76
2022/06/17 03:24:12;;;;;;;1.30;1.20;;;13.10;99.90;;;;;;5026591;28;20323;-76
2022/06/17 03:26:57;;;;;;;2.35;0.93;;;13.20;99.90;;;;;;5022283;28;20084;-76
2022/06/17 03:29:24;;;;;;;0.43;0.43;;;13.20;99.90;;;;;;5019575;28;20026;-76
2022/06/17 03:31:56;;;;;;;0.60;0.57;;;13.30;99.90;;;;;;5026642;28;20030;-76
2022/06/17 03:34:27;;;;;;;1.67;1.00;;;13.30;99.90;;;;;;5028203;28;20053;-76
2022/06/17 03:36:58;;;;;;;0.75;0.68;;;13.30;99.90;;;;;;5026610;28;20026;-76
2022/06/17 03:39:28;;;;;;;;;;;13.40;99.90;;;;;;5020883;28;20041;-76
2022/06/17 03:42:00;;;;;;;0.63;0.60;;;13.40;99.90;;;;;;5024881;28;19971;-77
2022/06/17 03:44:33;;;;;;;0.25;0.25;;;13.40;99.90;;;;;;5031349;28;20029;-76
2022/06/17 03:47:20;;;;;;;2.10;0.93;;;13.40;99.90;;;;;;5034042;28;20801;-76
2022/06/17 03:49:54;;;;;;;0.38;0.38;;;13.40;99.90;;;;;;5030335;28;20120;-76
2022/06/17 03:52:43;;;;;;;0.95;0.75;;;13.40;99.90;;;;;;5030247;28;20369;-76
2022/06/17 03:55:14;;;;;;;0.73;0.57;;;13.40;99.90;;;;;;5028412;28;20125;-76
2022/06/17 03:57:43;;;;;;;1.40;1.03;;;13.50;99.90;;;;;;5029915;28;20040;-76
2022/06/17 04:00:40;;;;;;;0.98;0.80;;;13.50;99.90;;;;;;5029811;28;20284;-76
2022/06/17 04:03:15;;;;;;;1.50;1.15;;;13.60;99.90;;;;;;5025854;28;20030;-76
2022/06/17 04:05:42;;;;;;;2.50;1.13;;;13.90;99.90;;;;;;5030958;28;20033;-77
2022/06/17 04:08:12;;;;;;;3.08;1.20;;;14.00;99.90;;;;;;5027238;28;20036;-76
2022/06/17 04:10:38;;;;;;;1.25;0.77;;;14.20;99.90;;;;;;5027236;28;20492;-77
2022/06/17 04:13:03;;;;;;;1.10;0.70;;;14.30;99.90;;;;;;5031492;28;20495;-77
2022/06/17 04:16:07;;;;;;;0.88;0.70;;;14.40;99.90;;;;;;5030301;28;20018;-76
2022/06/17 04:18:35;;;;;;;0.55;0.55;;;14.50;99.90;;;;;;5027537;28;20542;-76
2022/06/17 04:21:02;;;;;;;0.73;0.73;;;14.60;99.90;;;;;;5030600;28;20034;-76
2022/06/17 04:26:29;;;;;;;0.77;0.65;;;14.70;99.90;;;;;;5031670;28;20035;-76
2022/06/17 04:29:01;;;;;;;3.10;0.98;;;14.70;99.90;;;;;;5036934;28;20059;-77
2022/06/17 04:31:29;;;;;;;1.90;0.82;;;14.80;99.90;;;;;;5027604;28;20155;-76
2022/06/17 04:34:10;;;;;;;3.17;0.70;;;14.80;99.90;;;;;;5026116;28;20537;-77
2022/06/17 04:36:42;;;;;;;0.90;0.80;;;14.80;99.90;;;;;;5031449;28;20018;-76
2022/06/17 04:39:21;;;;;;;2.05;1.35;;;14.80;99.90;;;;;;5028730;28;20029;-76
2022/06/17 04:41:53;;;;;;;0.65;0.65;;;14.80;99.90;;;;;;5027797;28;20589;-76
2022/06/17 04:44:19;;;;;;;1.52;1.20;;;14.80;99.90;;;;;;5027825;28;20014;-77
2022/06/17 04:46:59;;;;;;;1.90;0.88;;;14.80;99.90;;;;;;5030223;28;20387;-76
2022/06/17 04:49:27;;;;;;;3.15;1.05;;;14.80;99.90;;;;;;5029316;28;20037;-76
2022/06/17 04:51:59;;;;;;;0.80;0.80;;;14.80;99.90;;;;;;5022272;28;20030;-76
2022/06/17 04:54:27;;;;;;;1.67;1.10;;;14.90;99.90;;;;;;5025230;28;20389;-76
2022/06/17 04:56:55;;;;;;;1.50;1.02;;;14.90;99.90;;;;;;5028564;28;20021;-77
2022/06/17 04:59:37;;;;;;;1.52;1.00;;;14.90;99.90;;;;;;5024992;28;20079;-76
2022/06/17 05:02:11;;;;;;;1.48;1.10;;;15.00;99.90;;;;;;5027277;28;20478;-77
2022/06/17 05:04:37;;;;;;;1.65;0.93;;;15.00;99.90;;;;;;5033256;28;20022;-76
2022/06/17 05:07:03;;;;;;;0.60;0.55;;;15.10;99.90;;;;;;5030290;28;20028;-77
2022/06/17 05:09:43;;;;;;;1.02;0.88;;;15.10;99.90;;;;;;5027742;28;20083;-77
2022/06/17 05:12:30;;;;;;;2.13;0.70;;;15.20;99.90;;;;;;5028835;28;20345;-76
2022/06/17 05:15:10;;;;;;;1.17;0.90;;;15.30;99.90;;;;;;5026270;28;20021;-77
2022/06/17 05:17:35;;;;;;;1.42;1.10;;;15.20;99.90;;;;;;5029201;28;20072;-76
2022/06/17 05:20:01;;;;;;;2.00;1.20;;;15.30;99.90;;;;;;5027584;28;20065;-76
2022/06/17 05:22:34;;;;;;;2.35;1.00;;;15.40;99.90;;;;;;5033217;28;20120;-76
2022/06/17 05:25:02;;;;;;;3.53;0.90;;;15.40;99.90;;;;;;5030581;28;20499;-76
2022/06/17 05:27:28;;;;;;;2.15;0.90;;;15.50;99.90;;;;;;5037257;28;20040;-76
2022/06/17 05:29:54;;;;;;;10.90;1.45;;;15.50;99.90;;;;;;5025820;28;20120;-77
2022/06/17 05:32:20;;;;;;;6.53;1.10;;;15.60;99.90;;;;;;5027226;28;20112;-76
2022/06/17 05:34:47;;;;;;;1.85;1.10;;;15.70;99.90;;;;;;5027552;28;20030;-76
2022/06/17 05:37:14;;;;;;;2.28;1.40;;;15.70;99.90;;;;;;5027858;28;20045;-76
2022/06/17 05:39:39;;;;;;;1.13;1.00;;;15.70;99.90;;;;;;5030839;28;20053;-76
2022/06/17 05:42:05;;;;;;;1.55;1.30;;;15.70;99.90;;;;;;5021808;28;20064;-76
2022/06/17 05:44:32;;;;;;;1.15;1.02;;;15.80;99.90;;;;;;5026740;28;20072;-76
2022/06/17 05:46:58;;;;;;;1.40;0.98;;;15.90;99.90;;;;;;5028277;28;20061;-76
2022/06/17 05:49:24;;;;;;;2.40;1.27;;;16.00;99.90;;;;;;5033458;28;20064;-76
2022/06/17 05:51:50;;;;;;;1.70;1.20;;;16.00;99.90;;;;;;5027306;28;20436;-76
2022/06/17 05:54:15;;;;;;;3.05;1.70;;;16.10;99.90;;;;;;5028494;28;20698;-76
2022/06/17 05:56:41;;;;;;;5.90;1.27;;;16.10;99.90;;;;;;5025512;28;20067;-76
2022/06/17 05:59:06;;;;;;;1.45;1.35;;;16.20;99.90;;;;;;5023282;28;20033;-76
2022/06/17 06:01:32;;;;;;;1.13;1.02;;;16.30;99.90;;;;;;5031592;28;20452;-76
2022/06/17 06:03:58;;;;;;;1.58;1.20;;;16.30;99.90;;;;;;5023032;28;20022;-76
2022/06/17 06:06:23;;;;;;;2.20;0.98;;;16.30;99.90;;;;;;5021714;28;20094;-76
2022/06/17 06:08:48;;;;;;;2.05;1.20;;;16.30;99.90;;;;;;5026619;28;20055;-76
2022/06/17 06:11:14;;;;;;;2.60;1.17;;;16.40;99.90;;;;;;5030330;28;20470;-76
2022/06/17 06:13:40;;;;;;;12.57;1.85;;;16.50;99.90;;;;;;5008788;28;20022;-76
2022/06/17 06:16:07;;;;;;;1.38;0.95;;;16.60;99.20;;;;;;5027473;28;20029;-76
2022/06/17 06:18:36;;;;;;;0.85;0.85;;;16.60;99.90;;;;;;5025811;28;20033;-76
2022/06/17 06:21:04;;;;;;;1.92;1.13;;;16.70;98.90;;;;;;5028804;28;20044;-76
2022/06/17 06:23:31;;;;;;;2.47;1.45;;;16.70;98.90;;;;;;5025198;28;20041;-76
2022/06/17 06:25:57;;;;;;;3.15;1.50;;;16.80;98.50;;;;;;5027513;28;20526;-75
2022/06/17 06:28:25;;;;;;;1.65;1.33;;;16.80;98.80;;;;;;5031219;28;20071;-76
2022/06/17 06:30:54;;;;;;;2.38;1.40;;;16.90;98.00;;;;;;5027624;28;20022;-76
2022/06/17 06:33:20;;;;;;;1.63;1.20;;;16.90;97.70;;;;;;5030320;28;20025;-75
2022/06/17 06:35:46;;;;;;;6.00;2.47;;;16.90;98.60;;;;;;5031648;28;20025;-76
2022/06/17 06:38:12;;;;;;;7.57;1.50;;;17.00;97.70;;;;;;5030324;28;20029;-75
2022/06/17 06:40:37;;;;;;;2.60;1.48;;;17.10;97.10;;;;;;5020613;28;20663;-77
2022/06/17 06:43:03;;;;;;;1.58;1.20;;;17.20;96.40;;;;;;5023187;28;20091;-77
2022/06/17 06:45:32;;;;;;;3.67;1.70;;;17.30;97.10;;;;;;5026576;28;20156;-76
2022/06/17 06:48:00;;;;;;;1.50;1.02;;;17.30;96.50;;;;;;5028277;28;20381;-80
2022/06/17 06:50:28;;;;;;;1.48;0.90;;;17.40;95.60;;;;;;5020230;28;20041;-79
2022/06/17 06:52:54;;;;;;;1.17;0.85;;;17.50;95.60;;;;;;5023351;28;20191;-75
2022/06/17 06:55:23;;;;;;;1.67;1.40;;;17.50;94.50;;;;;;5025061;28;20161;-74
2022/06/17 06:57:57;;;;;;;2.33;1.30;;;17.50;94.80;;;;;;5026658;28;20061;-75
2022/06/17 07:00:27;;;;;;;2.08;1.05;;;17.60;94.40;;;;;;5023931;28;20048;-74
2022/06/17 07:02:52;;;;;;;2.15;0.80;;;17.70;95.40;;;;;;5025515;28;20030;-75
2022/06/17 07:05:18;;;;;;;1.45;1.20;;;17.70;93.30;;;;;;5023945;28;20365;-76
2022/06/17 07:07:44;;;;;;;2.70;1.40;;;17.90;94.00;;;;;;5026250;28;20120;-75
2022/06/17 07:10:22;;;;;;;1.10;1.00;;;18.00;92.80;;;;;;5031230;28;20027;-75
2022/06/17 07:12:48;;;;;;;1.17;1.08;;;18.10;92.30;;;;;;5022348;28;20079;-75
2022/06/17 07:15:15;;;;;;;1.58;1.10;;;18.20;91.80;;;;;;5024431;28;20132;-77
2022/06/17 07:18:00;;;;;;;1.27;1.15;;;18.10;91.30;;;;;;5024360;28;20033;-76
2022/06/17 07:20:27;;;;;;;2.30;1.10;;;18.20;90.90;;;;;;5024188;28;20140;-76
2022/06/17 07:22:53;;;;;;;1.25;1.08;;;18.20;90.20;;;;;;5029644;28;20033;-76
2022/06/17 07:25:20;;;;;;;1.48;1.23;;;18.20;90.50;;;;;;5031482;28;20025;-75
2022/06/17 07:27:45;;;;;;;1.27;1.17;;;18.40;90.00;;;;;;5028871;28;20079;-75
2022/06/17 07:30:16;;;;;;;1.92;1.30;;;18.40;89.70;;;;;;5039855;28;20112;-75
2022/06/17 07:32:42;;;;;;;1.25;1.15;;;18.40;89.80;;;;;;5037638;28;20439;-76
2022/06/17 07:35:09;;;;;;;0.90;0.90;;;18.50;87.60;;;;;;5029013;28;20606;-76
2022/06/17 07:40:18;;;;;;;0.98;0.82;;;18.50;87.90;;;;;;5025884;28;20048;-76
2022/06/17 07:42:44;;;;;;;2.83;0.80;;;18.60;85.40;;;;;;5045000;28;20033;-75
2022/06/17 07:45:12;;;;;;;1.70;1.05;;;18.70;85.50;;;;;;5026587;28;20025;-71
2022/06/17 07:47:40;;;;;;;2.70;1.05;;;18.80;84.70;;;;;;5029847;28;20395;-71
2022/06/17 07:50:08;;;;;;;0.70;0.70;;;18.90;84.70;;;;;;5028701;28;20155;-73
2022/06/17 07:52:33;;;;;;;1.13;1.00;;;19.00;81.80;;;;;;5030715;28;20512;-73
2022/06/17 07:54:59;;;;;;;0.60;0.60;;;19.00;81.20;;;;;;5026876;28;20042;-74
2022/06/17 07:57:24;;;;;;;1.02;0.98;;;19.00;81.80;;;;;;5029571;28;20109;-73
2022/06/17 07:59:50;;;;;;;0.85;0.70;;;19.00;82.50;;;;;;5030338;28;20045;-74
2022/06/17 08:02:16;;;;;;;0.93;0.90;;;19.10;82.00;;;;;;5029886;28;20025;-74
2022/06/17 08:04:41;;;;;;;0.90;0.82;;;19.30;81.50;;;;;;5032012;28;20040;-73
2022/06/17 08:07:09;;;;;;;1.00;0.93;;;19.30;82.30;;;;;;5031644;28;20549;-74
2022/06/17 08:09:34;;;;;;;4.28;1.00;;;19.50;78.10;;;;;;5030966;28;20030;-73
2022/06/17 08:12:00;;;;;;;1.10;1.00;;;19.40;75.60;;;;;;5035081;28;20546;-73
2022/06/17 08:14:26;;;;;;;0.98;0.82;;;19.30;75.50;;;;;;5036749;28;20026;-74
2022/06/17 08:16:52;;;;;;;1.05;0.65;;;19.40;75.50;;;;;;5026551;28;20021;-74
2022/06/17 08:19:18;;;;;;;0.90;0.82;;;19.40;72.60;;;;;;5036220;28;20033;-73
2022/06/17 08:21:44;;;;;;;3.72;0.93;;;19.50;72.40;;;;;;5035841;28;20501;-74
2022/06/17 08:24:09;;;;;;;1.23;0.70;;;19.50;73.10;;;;;;5039341;28;20033;-75
2022/06/17 08:26:35;;;;;;;0.77;0.75;;;19.50;73.20;;;;;;5027659;28;20029;-74
2022/06/17 08:29:00;;;;;;;0.70;0.70;;;19.70;69.70;;;;;;5030848;28;20021;-75
2022/06/17 08:31:26;;;;;;;0.73;0.73;;;19.80;69.70;;;;;;5029995;28;20032;-76
2022/06/17 08:33:51;;;;;;;0.80;0.80;;;19.80;71.70;;;;;;5022589;28;20036;-78
2022/06/17 08:36:22;;;;;;;2.08;0.90;;;19.80;69.60;;;;;;5036478;28;20033;-75
2022/06/17 08:39:04;;;;;;;1.80;0.63;;;19.90;68.40;;;;;;5030570;28;20036;-73
2022/06/17 08:41:35;;;;;;;0.98;0.77;;;19.90;68.00;;;;;;5033150;28;20510;-75
2022/06/17 08:44:36;;;;;;;0.75;0.68;;;20.00;66.70;;;;;;5025981;28;20040;-74
2022/06/17 08:47:10;;;;;;;0.65;0.65;;;20.10;66.70;;;;;;5025882;28;20041;-76
2022/06/17 08:50:14;;;;;;;1.10;0.98;;;20.20;66.30;;;;;;5028121;28;20056;-73
2022/06/17 08:53:08;;;;;;;0.50;0.50;;;20.20;65.40;;;;;;5032381;28;20057;-74
2022/06/17 08:55:34;;;;;;;0.60;0.60;;;20.30;64.20;;;;;;5007466;28;20470;-76
2022/06/17 08:58:26;;;;;;;3.72;1.52;;;20.30;64.70;;;;;;5032909;28;20067;-75
2022/06/17 09:01:19;;;;;;;1.02;0.85;;;20.40;62.70;;;;;;5030556;28;20036;-75
2022/06/17 09:04:01;;;;;;;0.50;0.40;;;20.60;63.60;;;;;;5028684;28;20103;-74
2022/06/17 09:06:36;;;;;;;0.88;0.60;;;20.60;61.90;;;;;;5028494;28;20101;-74
2022/06/17 09:09:21;;;;;;;0.60;0.60;;;20.70;62.20;;;;;;5028685;28;20025;-74
2022/06/17 09:12:11;;;;;;;0.70;0.70;;;20.90;62.70;;;;;;5039710;28;20030;-73
2022/06/17 09:15:13;;;;;;;0.50;0.50;;;20.90;63.00;;;;;;5021486;28;20028;-74
2022/06/17 09:18:06;;;;;;;0.60;0.60;;;20.90;61.40;;;;;;5035890;28;20060;-74
2022/06/17 09:20:38;;;;;;;0.45;0.45;;;20.90;61.70;;;;;;5030482;28;20099;-73
2022/06/17 09:23:05;;;;;;;0.50;0.50;;;20.90;59.90;;;;;;5033903;28;20021;-73
2022/06/17 09:25:52;;;;;;;0.70;0.70;;;20.80;60.20;;;;;;5035692;28;20060;-74
2022/06/17 09:28:48;;;;;;;1.35;0.60;;;20.90;60.50;;;;;;5041390;28;20028;-73
2022/06/17 09:31:22;;;;;;;0.50;0.50;;;21.00;59.90;;;;;;5037889;28;21692;-73
2022/06/17 09:34:05;;;;;;;1.13;0.98;;;21.10;60.00;;;;;;5025352;28;20183;-74
2022/06/17 09:36:43;;;;;;;0.95;0.40;;;21.10;61.70;;;;;;5025627;28;20034;-75
2022/06/17 09:39:28;;;;;;;0.98;0.88;;;21.10;60.50;;;;;;5025107;28;20215;-74
2022/06/17 09:42:02;;;;;;;0.55;0.50;;;21.30;61.60;;;;;;5036078;28;20033;-73
2022/06/17 09:44:44;;;;;;;0.88;0.68;;;21.30;59.30;;;;;;5029851;28;20364;-72
2022/06/17 09:47:12;;;;;;;1.20;0.60;;;21.30;59.30;;;;;;5024532;28;20443;-73
2022/06/17 09:49:47;;;;;;;0.47;0.43;;;21.30;59.50;;;;;;5030072;28;20377;-73
2022/06/17 09:52:19;;;;;;;0.73;0.73;;;21.30;61.10;;;;;;5030533;28;20546;-73
2022/06/17 09:55:05;;;;;;;0.90;0.80;;;21.50;60.90;;;;;;5028273;28;20048;-70
2022/06/17 09:57:52;;;;;;;0.57;0.57;;;21.70;60.00;;;;;;5028623;28;20083;-73
2022/06/17 10:00:21;;;;;;;0.40;0.40;;;21.60;59.10;;;;;;5034143;28;20025;-74
2022/06/17 10:04:12;;;;;;;0.80;0.80;;;21.70;58.20;;;;;;5045685;28;20412;-72
2022/06/17 10:07:14;;;;;;;2.30;1.33;;;21.60;61.50;;;;;;5041802;28;20028;-73
2022/06/17 10:10:32;;;;;;;0.43;0.43;;;21.70;59.60;;;;;;5046127;28;20052;-72
2022/06/17 10:12:57;;;;;;;0.60;0.60;;;21.80;60.30;;;;;;5021647;28;20128;-73
2022/06/17 10:15:32;;;;;;;0.80;0.80;;;21.80;60.10;;;;;;5041734;28;20117;-73
2022/06/17 10:21:05;;;;;;;0.77;0.50;;;22.00;61.60;;;;;;5044749;28;20399;-73
2022/06/17 10:23:59;;;;;;;0.52;0.52;;;22.20;57.30;;;;;;5041659;28;20031;-72
2022/06/17 10:26:34;;;;;;;1.50;0.80;;;22.10;58.10;;;;;;5041690;28;20030;-73
2022/06/17 10:29:13;;;;;;;1.10;0.60;;;22.20;57.80;;;;;;5044419;28;20052;-72
2022/06/17 10:31:42;;;;;;;1.73;0.50;;;22.50;58.60;;;;;;5047306;28;20021;-72
2022/06/17 10:34:58;;;;;;;0.70;0.70;;;22.50;58.10;;;;;;5046364;28;20033;-71
2022/06/17 10:37:26;;;;;;;0.60;0.60;;;22.90;56.30;;;;;;5039937;28;20049;-73
2022/06/17 10:39:51;;;;;;;1.08;0.60;;;23.10;56.50;;;;;;5045113;28;20021;-72
2022/06/17 10:42:19;;;;;;;0.52;0.52;;;23.20;55.50;;;;;;5046466;28;20634;-72
2022/06/17 10:44:49;;;;;;;0.60;0.60;;;23.40;55.40;;;;;;5044148;28;20115;-72
2022/06/17 10:47:39;;;;;;;0.70;0.70;;;23.80;55.10;;;;;;5044588;28;20697;-72
2022/06/17 10:50:08;;;;;;;1.02;0.70;;;23.90;54.90;;;;;;5029651;28;20052;-72
2022/06/17 10:52:40;;;;;;;1.05;0.95;;;23.60;55.50;;;;;;5020994;28;20037;-72
2022/06/17 10:55:15;;;;;;;0.52;0.38;;;23.60;54.30;;;;;;5015897;28;20395;-71
2022/06/17 10:58:18;;;;;;;0.70;0.55;;;23.70;51.60;;;;;;5014810;28;20044;-72
2022/06/17 11:00:54;;;;;;;0.60;0.60;;;23.90;53.10;;;;;;5017679;28;20059;-72
2022/06/17 11:03:38;;;;;;;0.80;0.70;;;24.20;51.50;;;;;;5015273;28;20128;-71
2022/06/17 11:06:17;;;;;;;0.50;0.50;;;24.30;53.20;;;;;;5015218;28;20479;-72
2022/06/17 11:08:57;;;;;;;0.47;0.47;;;24.50;51.90;;;;;;5013833;28;20037;-72
2022/06/17 11:14:29;;;;;;;0.40;0.40;;;24.90;53.40;;;;;;5006427;28;20048;-72
2022/06/17 11:16:54;;;;;;;0.47;0.45;;;25.00;49.70;;;;;;5005063;28;20404;-72
2022/06/17 11:19:24;;;;;;;0.70;0.70;;;25.30;49.10;;;;;;5000164;28;20021;-71
2022/06/17 11:21:52;;;;;;;0.75;0.75;;;25.10;48.40;;;;;;4998493;28;20377;-72
2022/06/17 11:24:28;;;;;;;0.60;0.60;;;25.30;50.40;;;;;;4999618;28;20036;-72
2022/06/17 11:27:17;;;;;;;1.48;0.80;;;24.40;53.30;;;;;;4998629;28;20513;-72
2022/06/17 11:29:46;;;;;;;0.40;0.40;;;25.00;49.80;;;;;;5000965;28;20090;-72
2022/06/17 11:32:20;;;;;;;0.52;0.50;;;25.60;49.20;;;;;;5001684;28;20068;-72
2022/06/17 11:34:53;;;;;;;0.43;0.35;;;25.80;50.30;;;;;;5013235;28;20167;-72
2022/06/17 11:37:33;;;;;;;0.52;0.40;;;26.10;49.70;;;;;;5024544;28;20090;-72
2022/06/17 11:40:12;;;;;;;0.70;0.70;;;26.40;47.70;;;;;;5026929;28;20090;-72
2022/06/17 11:42:51;;;;;;;0.65;0.45;;;26.40;45.70;;;;;;5020315;28;20029;-72
2022/06/17 11:45:32;;;;;;;0.63;0.63;;;26.50;47.20;;;;;;5025343;28;20091;-73
2022/06/17 11:48:24;;;;;;;0.70;0.70;;;27.00;45.00;;;;;;5026045;28;20025;-76
2022/06/17 11:51:10;;;;;;;0.43;0.43;;;27.10;45.30;;;;;;5026212;28;20037;-73
2022/06/17 11:53:54;;;;;;;0.60;0.60;;;26.80;48.30;;;;;;5026004;28;20108;-74
2022/06/17 11:56:31;;;;;;;0.75;0.63;;;27.30;44.00;;;;;;5024638;28;20033;-73
2022/06/17 11:59:01;;;;;;;1.17;0.50;;;27.20;46.90;;;;;;5026986;28;20037;-74
2022/06/17 12:01:28;;;;;;;0.95;0.70;;;27.70;45.20;;;;;;5024553;28;20040;-74
2022/06/17 12:03:53;;;;;;;2.13;0.70;;;25.60;49.20;;;;;;5025680;28;20076;-74
2022/06/17 12:06:29;;;;;;;0.55;0.50;;;26.20;44.80;;;;;;5026594;28;20500;-74
2022/06/17 12:09:01;;;;;;;0.70;0.63;;;26.90;45.20;;;;;;5024768;28;20033;-74
2022/06/17 12:11:56;;;;;;;0.88;0.63;;;27.30;44.00;;;;;;5021688;28;20037;-78
2022/06/17 12:14:45;;;;;;;0.50;0.50;;;27.90;42.00;;;;;;5023692;28;20199;-74
2022/06/17 12:17:13;;;;;;;0.50;0.50;;;28.00;45.00;;;;;;5024272;28;20655;-75
2022/06/17 12:19:39;;;;;;;0.60;0.60;;;28.50;43.10;;;;;;5027509;28;20116;-73
2022/06/17 12:22:19;;;;;;;0.47;0.47;;;29.00;42.80;;;;;;5017475;28;20575;-73
2022/06/17 12:24:54;;;;;;;2.17;0.60;;;28.20;42.90;;;;;;5011717;28;20084;-74
2022/06/17 12:27:41;;;;;;;0.57;0.57;;;27.70;44.60;;;;;;5019619;28;20075;-74
2022/06/17 12:30:21;;;;;;;0.73;0.70;;;28.40;40.10;;;;;;5020378;28;20025;-74
2022/06/17 12:33:06;;;;;;;0.30;0.30;;;28.40;42.70;;;;;;5020216;28;20034;-74
2022/06/17 12:35:38;;;;;;;0.77;0.60;;;29.60;40.90;;;;;;5020484;28;20079;-74
2022/06/17 12:38:20;;;;;;;1.27;0.70;;;29.90;38.50;;;;;;5020744;28;20029;-74
2022/06/17 12:40:53;;;;;;;0.50;0.50;;;30.20;38.40;;;;;;5018679;28;20490;-76
2022/06/17 12:43:33;;;;;;;0.50;0.50;;;30.10;37.80;;;;;;5024389;28;20037;-74
2022/06/17 12:46:13;;;;;;;1.30;0.50;;;30.10;41.30;;;;;;5026209;28;20037;-75
2022/06/17 12:55:20;;;;;;;0.60;0.60;;;31.40;36.00;;;;;;5025258;28;20460;-73
2022/06/17 12:58:28;;;;;;;1.52;0.70;;;31.70;37.00;;;;;;5021888;28;20029;-74
2022/06/17 13:01:02;;;;;;;0.40;0.40;;;31.90;37.20;;;;;;5024095;28;20030;-73
2022/06/17 13:03:54;;;;;;;0.70;0.70;;;31.60;38.00;;;;;;5023201;28;20049;-74
2022/06/17 13:06:49;;;;;;;0.43;0.43;;;31.50;37.60;;;;;;5024021;28;20112;-73
2022/06/17 13:09:47;;;;;;;1.10;0.60;;;31.60;37.80;;;;;;5024419;28;22054;-79
2022/06/17 13:12:27;;;;;;;0.47;0.47;;;32.10;34.50;;;;;;5022099;28;20029;-73
2022/06/17 13:15:17;;;;;;;0.80;0.80;;;31.60;34.90;;;;;;5022766;28;20037;-73
2022/06/17 13:17:54;;;;;;;0.38;0.38;;;31.10;35.40;;;;;;5024671;28;20030;-73
2022/06/17 13:20:27;;;;;;;0.57;0.57;;;30.90;35.00;;;;;;5021035;28;20066;-75
2022/06/17 13:23:03;;;;;;;0.43;0.43;;;30.30;36.30;;;;;;5024568;28;20032;-75
2022/06/17 13:25:38;;;;;;;0.75;0.68;;;30.50;37.40;;;;;;5024140;28;20036;-74
2022/06/17 13:28:26;;;;;;;1.80;0.75;;;31.00;38.70;;;;;;5025742;28;20026;-73
2022/06/17 13:30:58;;;;;;;0.50;0.50;;;31.70;35.90;;;;;;5020917;28;20037;-73
2022/06/17 13:33:34;;;;;;;0.50;0.50;;;31.90;35.10;;;;;;5023621;28;20036;-76
2022/06/17 13:36:29;;;;;;;0.95;0.90;;;32.10;36.80;;;;;;5022347;28;20046;-72
2022/06/17 13:39:01;;;;;;;0.50;0.50;;;31.60;35.90;;;;;;5020984;28;20052;-73
2022/06/17 13:41:55;;;;;;;0.70;0.50;;;32.20;37.30;;;;;;5018834;28;20033;-72
2022/06/17 13:44:44;;;;;;;0.88;0.77;;;32.30;34.30;;;;;;5024256;28;20033;-73